METAR Data
IDs: Format: Raw Decoded Include TAF

Data at: 0733 UTC 01 Aug 2021

EBCI 010720Z 24008KT 8000 BKN005 14/12 Q1011 NOSIG